Weather observations for the past three days for
DeLand Municipal Airport
Imperial (Metric)
Date Time (edt) Wind (mph) Vis. (mi.) Weather Sky Cond. Temperature (ºF) Relative Humidity Wind Chill (°F) Heat Index (°F) Pressure Precipitation (in)
Air Dwpt 6 hour altimeter (in) sea level (mb) 1 hr 3 hr 6 hr
Max. Min.
07 16:15 SW 14 10.00 Fair CLR 95.4 58.6 29% 95 29.91 0.0
07 15:55 SW 8 10.00 Fair CLR 95.4 58.6 29% 95 29.92 0.0
07 15:35 W 9 10.00 Fair CLR 95.2 59.2 30% 95 29.92 0.0
07 15:15 SW 9 10.00 Fair CLR 94.1 59.9 32% 94 29.93 0.0
07 14:55 SW 13 G 16 10.00 Fair CLR 94.5 59.7 31% 94 29.94 0.0
07 14:35 SW 12 G 16 10.00 Fair CLR 94.6 58.5 30% 94 29.95 0.0
07 14:15 SW 12 10.00 Fair CLR 93.9 59.5 32% 94 29.97 0.0
07 13:55 W 12 10.00 Fair CLR 92.5 60.8 93.9 70.5 35% 92 29.98 0.0
07 13:35 W 12 10.00 Fair CLR 93 62.6 36% 94 29.98 0.0
07 13:15 SW 12 G 18 10.00 Fair CLR 91.8 62.6 38% 93 29.98 0.0
07 12:55 S 14 G 17 10.00 Fair CLR 91 63 39% 92 29.98 0.0
07 12:35 S 14 G 24 10.00 Fair CLR 90.7 64 41% 92 29.98 0.0
07 12:15 S 12 10.00 Fair CLR 89.2 66.2 47% 92 29.99 0.0
07 11:55 S 13 10.00 Fair CLR 88.3 67.5 50% 92 29.99 0.0
07 11:35 SW 12 10.00 Fair CLR 87.4 66.7 50% 90 30 0.0
07 11:15 SW 10 10.00 Fair CLR 86.7 65.8 50% 89 30 0.0
07 10:55 SW 12 G 17 10.00 Fair CLR 86.7 66 50% 89 30.01 0.0
07 10:35 SW 9 G 18 10.00 Fair CLR 84.6 66.2 54% 87 30.01 0.0
07 10:15 S 10 10.00 Fair CLR 84 67.1 57% 87 30.01 0.0
07 09:35 S 10 10.00 Fair CLR 81.3 66.4 61% 84 30.01 0.0
07 09:15 S 12 10.00 Fair CLR 79.3 65.7 63% 81 30.02 0.0
07 08:55 S 9 10.00 Fair CLR 77.2 66.2 69% 79 30.01 0.0
07 08:35 S 7 10.00 Fair CLR 74.7 66.4 76% 30.02 0.0
07 08:15 SE 3 10.00 Fair CLR 71.6 65.7 82% 30.02 0.0
07 07:55 SE 5 10.00 Fair CLR 70.3 64.9 71.8 64.4 83% 30.02 0.0
07 07:35 SE 5 10.00 Fair CLR 70.2 64.9 84% 30.02 0.0
07 07:15 SE 3 10.00 Fair CLR 69.4 64.2 84% 30.01 0.0
07 06:55 Calm 10.00 Fair CLR 68.5 63.5 84% 30 0.0
07 06:35 SE 3 10.00 Fair CLR 67.6 62.8 85% 30 0.0
07 06:15 Calm 10.00 Fair CLR 67.1 61.7 83% 29.99 0.0
07 05:55 Calm 10.00 Fair CLR 65.3 60.1 83% 30 0.0
07 05:35 Calm 10.00 Fair CLR 65.5 59.7 82% 29.99 0.0
07 05:15 Calm 10.00 Fair CLR 66 60.1 81% 29.99 0.0
07 04:55 Calm 10.00 Fair CLR 64.4 59 83% 29.98 0.0
07 04:35 Calm 10.00 Fair CLR 65.8 59.5 80% 29.98 0.0
07 04:15 Calm 10.00 Fair CLR 66.4 59.4 78% 29.98 0.0
07 03:55 Calm 10.00 Fair CLR 68.5 60.3 75% 29.98 0.0
07 03:35 Calm 10.00 Fair CLR 67.3 59.7 77% 29.98 0.0
07 03:15 Calm 10.00 Fair CLR 67.5 59.5 76% 29.99 0.0
07 02:55 Calm 10.00 Fair CLR 68.5 60.3 75% 30 0.0
07 02:35 Calm 10.00 Fair CLR 68.7 59.7 73% 30 0.0
07 02:15 Calm 10.00 Fair CLR 68.9 60.1 74% 30.02 0.0
07 01:55 Calm 10.00 Fair CLR 73.4 59.2 81.5 72.5 61% 30.02 0.0
07 01:35 S 5 10.00 Fair CLR 72.7 59.4 63% 30.02 0.0
07 01:15 S 5 10.00 Fair CLR 73.9 59.5 61% 30.03 0.0
07 00:35 S 7 10.00 Fair CLR 73.4 60.6 64% 30.02 0.0
07 00:15 S 6 10.00 Fair CLR 73.4 60.6 64% 30.03 0.0
06 23:55 SE 5 10.00 Fair CLR 74.3 60.6 62% 30.03 0.0
06 23:35 S 8 10.00 Fair CLR 74.3 60.6 62% 30.03 0.0
06 23:15 S 5 10.00 Fair CLR 74.8 60.3 61% 30.03 0.0
06 22:55 S 6 10.00 Fair CLR 76.6 59.7 56% 78 30.03 0.0
06 22:35 S 5 10.00 Fair CLR 77.4 59.5 54% 79 30.03 0.0
06 22:15 SW 5 10.00 Fair CLR 77.4 58.6 53% 79 30.02 0.0
06 21:55 SE 7 10.00 Fair CLR 77 58.6 53% 79 30.01 0.0
06 21:35 SE 7 10.00 Fair CLR 77.7 58.8 52% 79 30.01 0.0
06 21:15 SE 9 10.00 Fair CLR 78.8 59 51% 80 30 0.0
06 20:55 SE 12 10.00 Fair CLR 79.5 59.5 51% 80 30 0.0
06 20:35 SE 10 10.00 Fair CLR 79.9 62.8 56% 81 30 0.0
06 20:15 SE 9 10.00 Fair CLR 80.6 63.9 57% 82 29.99 0.0
06 19:35 SE 12 10.00 Fair CLR 83.3 64 52% 85 29.99 0.0
06 19:15 SE 12 10.00 Fair CLR 84.6 64.2 51% 86 29.99 0.0
06 18:55 E 14 10.00 Fair CLR 85.6 64 49% 87 29.98 0.0
06 18:15 E 16 10.00 Fair CLR 87.3 64.2 46% 89 29.98 0.0
06 17:55 E 16 10.00 Fair CLR 88 64.6 46% 90 29.98 0.0
06 17:35 E 12 10.00 Fair CLR 89.2 65.5 45% 91 29.99 0.0
06 17:15 S 10 10.00 Fair CLR 92.3 59 33% 92 29.98 0.0
06 16:55 S 9 10.00 Fair CLR 91.9 57.7 32% 91 29.98 0.0
06 16:35 S 7 10.00 Fair CLR 91.8 57 31% 90 29.99 0.0
06 16:15 SE 12 10.00 Fair CLR 91.6 57.7 32% 90 29.99 0.0
06 15:55 SE 7 10.00 Fair CLR 91.4 58.8 34% 91 29.99 0.0
06 15:35 SE 8 10.00 Fair CLR 91.4 59.2 34% 91 30 0.0
06 15:15 SE 5 10.00 Fair CLR 91 60.3 36% 91 30.01 0.0
06 14:55 SE 12 G 17 10.00 Fair CLR 90.7 60.4 36% 90 30.01 0.0
06 14:35 SE 9 10.00 Fair CLR 90.7 61.7 38% 91 30.02 0.0
06 14:15 E 6 10.00 Fair CLR 89.2 61.3 39% 89 30.02 0.0
06 13:55 E 6 10.00 Fair CLR 88.7 61.3 89.4 67.1 40% 89 30.03 0.0
06 13:35 SE 10 10.00 Fair CLR 88.7 62.6 42% 89 30.04 0.0
06 13:15 S 7 10.00 Fair CLR 86.9 61.2 42% 87 30.04 0.0
06 12:55 SE 7 10.00 Fair CLR 86.7 61.7 43% 87 30.05 0.0
06 12:35 SE 8 10.00 Fair CLR 86 61 43% 86 30.06 0.0
06 12:15 S 8 10.00 Fair CLR 85.5 59.9 42% 85 30.07 0.0
06 11:55 SE 8 10.00 Fair CLR 84.7 60.8 45% 85 30.07 0.0
06 11:35 S 8 10.00 Fair CLR 83.8 61.9 48% 84 30.07 0.0
06 11:15 S 9 10.00 Fair CLR 83.3 61.9 49% 84 30.07 0.0
06 10:55 S 9 10.00 Fair CLR 82 62.1 51% 83 30.07 0.0
06 10:35 S 8 10.00 Fair CLR 81.5 65.1 58% 83 30.07 0.0
06 10:15 S 9 10.00 Fair CLR 80.6 64.6 58% 82 30.06 0.0
06 09:55 S 10 10.00 Fair CLR 79.7 65.7 62% 82 30.06 0.0
06 09:35 S 9 10.00 Fair CLR 77.4 66.4 69% 79 30.06 0.0
06 09:15 SE 13 10.00 Fair CLR 76.6 66.7 72% 78 30.05 0.0
06 08:55 S 7 10.00 Fair CLR 74.5 65.8 75% 30.06 0.0
06 08:35 S 6 10.00 Fair CLR 72.3 64.9 78% 30.05 0.0
06 08:15 SE 5 10.00 Fair CLR 70.2 63.7 80% 30.05 0.0
06 07:55 Calm 10.00 Fair CLR 66.2 62.1 66.7 59.9 87% 30.04 0.0
06 07:35 Calm 10.00 Fair CLR 63.5 59.5 87% 30.04 0.0
06 07:15 Calm 10.00 Fair CLR 62.1 58.5 88% 30.04 0.0
06 06:55 Calm 10.00 Fair CLR 60.6 57.7 90% 30.03 0.0
06 06:35 Calm 10.00 Fair CLR 60.6 57.6 90% 30.02 0.0
06 06:15 Calm 10.00 Fair CLR 61 57.7 89% 30.02 0.0
06 05:55 Calm 10.00 Fair CLR 59.9 56.8 90% 30.02 0.0
06 05:35 Calm 10.00 Fair CLR 60.8 57.4 89% 30.02 0.0
06 05:15 Calm 10.00 Fair CLR 61.9 57 84% 30.02 0.0
06 04:55 Calm 10.00 Fair CLR 61.7 57.4 86% 30.01 0.0
06 04:35 Calm 10.00 Fair CLR 61.7 57.2 85% 30.01 0.0
06 04:15 Calm 10.00 Fair CLR 62.6 57.6 84% 30.02 0.0
06 03:55 Calm 10.00 Fair CLR 61.7 57.2 85% 30.01 0.0
06 03:35 Calm 10.00 Fair CLR 61.7 57 85% 30.01 0.0
06 03:15 Calm 10.00 Fair CLR 61.9 57 84% 30.02 0.0
06 02:55 Calm 10.00 Fair CLR 62.1 57.2 84% 30.01 0.0
06 02:35 Calm 10.00 Fair CLR 62.6 57 82% 30.02 0.0
06 02:15 Calm 10.00 Fair CLR 62.8 57.7 84% 30.03 0.0
06 01:55 Calm 10.00 Fair CLR 63.1 57.2 73.2 62.8 81% 30.03 0.0
06 01:35 Calm 10.00 Fair CLR 64.6 57.4 78% 30.04 0.0
06 01:15 Calm 10.00 Fair CLR 63.3 57.4 81% 30.04 0.0
06 00:55 Calm 10.00 Fair CLR 65.1 57.6 77% 30.05 0.0
06 00:35 Calm 10.00 Fair CLR 65.5 57.4 75% 30.06 0.0
06 00:15 Calm 10.00 Fair CLR 66.6 57.4 72% 30.05 0.0
05 23:55 SW 5 10.00 Fair CLR 69.1 57.9 68% 30.05 0.0
05 23:35 SE 3 10.00 Fair CLR 67.5 57 69% 30.04 0.0
05 23:15 SE 6 10.00 Fair CLR 67.1 56.8 70% 30.03 0.0
05 22:55 E 3 10.00 Fair CLR 66 56.3 71% 30.03 0.0
05 22:35 E 3 10.00 Fair CLR 66.2 55.9 70% 30.03 0.0
05 22:15 Calm 10.00 Fair CLR 67.8 55.9 66% 30.03 0.0
05 21:55 Calm 10.00 Fair CLR 67.8 55.9 66% 30.03 0.0
05 21:35 Calm 10.00 Fair CLR 68.5 55.9 64% 30.02 0.0
05 21:15 E 3 10.00 Fair CLR 69.1 55.8 63% 30.03 0.0
05 20:55 E 5 10.00 Fair CLR 69.8 55.6 61% 30.02 0.0
05 20:35 E 6 10.00 Fair CLR 70.7 55.6 59% 30.01 0.0
05 20:15 E 7 10.00 Fair CLR 71.6 55.6 57% 30.01 0.0
05 19:55 E 8 10.00 Fair CLR 73.2 55.6 83.5 73.2 54% 30 0.0
05 19:35 E 6 10.00 Fair CLR 74.7 55.8 52% 30 0.0
05 19:15 E 9 10.00 Fair CLR 76.1 55.2 48% 78 30 0.0
05 18:55 E 13 10.00 Fair CLR 77.2 54.9 46% 79 30 0.0
05 18:35 E 13 10.00 Fair CLR 78.1 54.7 45% 79 30 0.0
05 18:15 E 12 10.00 Fair CLR 79.2 54.9 43% 80 30 0.0
05 17:55 E 13 10.00 Fair CLR 80.1 55 42% 80 30 0.0
05 17:35 E 14 10.00 Fair CLR 80.4 55.2 42% 80 30 0.0
05 17:15 NE 13 10.00 Fair CLR 80.6 55.9 43% 81 30 0.0
05 16:55 NE 14 10.00 Fair CLR 81 56.5 43% 81 30 0.0
05 16:35 E 14 10.00 Fair CLR 81 56.7 43% 81 30 0.0
05 16:15 E 12 10.00 Fair CLR 79.9 57 46% 80 30.01 0.0
05 15:55 E 13 G 16 10.00 Partly Cloudy SCT060 SCT070 SCT090 80.2 56.8 45% 81 30.01 0.0
05 15:35 E 8 10.00 Mostly Cloudy BKN060 79.9 57 46% 80 30.02 0.0
05 15:15 E 13 10.00 Partly Cloudy SCT055 83.1 57.6 42% 83 30.02 0.0
05 14:55 E 10 10.00 Partly Cloudy SCT060 SCT070 81.5 56.7 43% 81 30.03 0.0
05 14:35 E 10 G 16 10.00 Partly Cloudy BKN070 SCT085 82.2 57.6 43% 82 30.03 0.0
05 14:15 E 10 10.00 Mostly Cloudy SCT060 BKN070 BKN085 81.7 57.2 43% 82 30.03 0.0
05 13:55 NE 9 10.00 Mostly Cloudy SCT060 BKN070 BKN085 79.5 56.7 82.9 63.3 46% 80 30.04 0.0
05 13:35 E 9 G 18 10.00 Overcast BKN050 OVC080 80.8 57.6 45% 81 30.04 0.0
05 13:15 E 8 G 17 10.00 Mostly Cloudy SCT050 BKN070 BKN080 81 57.2 44% 81 30.04 0.0
05 12:55 E 9 10.00 Mostly Cloudy BKN050 BKN070 80.8 58.1 46% 81 30.05 0.0
05 12:35 E 9 10.00 Mostly Cloudy BKN060 BKN070 79.7 58.1 48% 80 30.05 0.0
05 12:15 E 8 10.00 Mostly Cloudy SCT060 BKN070 80.6 58.3 47% 81 30.05 0.0
05 11:55 NE 8 10.00 Mostly Cloudy SCT050 BKN060 BKN070 78.1 58.1 50% 79 30.05 0.0
05 11:35 N 5 10.00 Mostly Cloudy SCT044 BKN050 79.2 57.2 47% 80 30.05 0.0
05 11:15 E 8 10.00 Partly Cloudy SCT044 SCT050 79.7 58.5 48% 80 30.05 0.0
05 10:55 E 7 10.00 Partly Cloudy SCT044 SCT050 78.6 57.6 49% 80 30.05 0.0
05 10:35 SE 7 10.00 Fair CLR 78.4 57.2 48% 79 30.05 0.0
05 10:15 E 12 10.00 Fair CLR 77.7 58.5 52% 79 30.05 0.0
05 09:55 E 8 10.00 Fair CLR 76.6 58.1 53% 78 30.04 0.0
05 09:35 E 7 10.00 Fair CLR 75.7 60.1 58% 78 30.04 0.0
05 09:15 E 8 10.00 Fair CLR 75 60.3 60% 77 30.05 0.0
05 08:55 E 5 10.00 Fair CLR 72.7 60.8 66% 30.04 0.0
05 08:35 E 5 10.00 Fair CLR 69.8 60.4 72% 30.04 0.0
05 07:55 Calm 10.00 Fair CLR 63 58.3 63.3 55.6 85% 30.02 0.0
05 07:35 Calm 10.00 Fair CLR 61.7 57.6 86% 30.03 0.0
05 07:15 Calm 10.00 Fair CLR 58.1 55 90% 30.02 0.0
05 06:55 Calm 10.00 Fair CLR 56.7 54 91% 30.01 0.0
05 06:35 Calm 10.00 Fair CLR 55.9 53.6 92% 30.01 0.0
05 06:15 Calm 10.00 Fair CLR 56.7 54.1 91% 30.01 0.0
05 05:55 Calm 10.00 Fair CLR 56.8 54.1 91% 30 0.0
05 05:35 Calm 10.00 Fair CLR 56.7 54 91% 30 0.0
05 05:15 Calm 10.00 Fair CLR 56.8 54 90% 30 0.0
05 04:55 Calm 10.00 Fair CLR 57.4 54.5 90% 29.99 0.0
05 04:35 Calm 10.00 Fair CLR 57.4 53.8 88% 30 0.0
05 04:15 Calm 10.00 Fair CLR 57.7 54 87% 29.99 0.0
05 03:55 Calm 10.00 Fair CLR 58.6 54.1 85% 29.99 0.0
05 03:35 Calm 10.00 Fair CLR 60.1 55 84% 29.99 0.0
05 03:15 Calm 10.00 Fair CLR 58.3 54.9 88% 29.99 0.0
05 02:55 Calm 10.00 Fair CLR 58.1 54.9 89% 30 0.0
05 02:35 Calm 10.00 Fair CLR 59.4 54.9 85% 30 0.0
05 02:15 Calm 10.00 Fair CLR 60.1 55.2 84% 30.01 0.0
05 01:55 Calm 10.00 Fair CLR 58.8 54.5 70.5 58.8 86% 30.01 0.0
05 01:35 Calm 10.00 Fair CLR 60.1 55 84% 30.02 0.0
05 01:15 Calm 10.00 Fair CLR 60.6 54.9 81% 30.03 0.0
05 00:55 Calm 10.00 Fair CLR 61.9 54.9 78% 30.03 0.0
05 00:35 Calm 10.00 Fair CLR 62.1 55.2 78% 30.03 0.0
05 00:15 E 3 10.00 Fair CLR 62.2 55 77% 30.03 0.0
04 23:55 E 3 10.00 Fair CLR 62.2 54.7 76% 30.04 0.0
04 23:35 E 3 10.00 Fair CLR 62.4 54.5 75% 30.04 0.0
04 23:15 E 3 10.00 Fair CLR 62.8 54.5 75% 30.05 0.0
04 22:55 E 3 10.00 Fair CLR 62.4 54.1 74% 30.05 0.0
04 22:35 Calm 10.00 Fair CLR 63.1 54.3 73% 30.05 0.0
04 22:15 E 3 10.00 Fair CLR 64.6 53.8 68% 30.05 0.0
04 21:55 NE 3 10.00 Fair CLR 64.6 53.8 68% 30.05 0.0
04 21:35 E 3 10.00 Fair CLR 65.3 53.8 66% 30.04 0.0
04 21:15 E 3 10.00 Fair CLR 65.8 54 66% 30.03 0.0
04 20:55 E 3 10.00 Fair CLR 67.1 54 63% 30.03 0.0
04 20:35 E 5 10.00 Fair CLR 67.1 53.8 62% 30.03 0.0
04 20:15 E 6 10.00 Fair CLR 69.1 53.8 58% 30.02 0.0
04 19:55 E 8 10.00 Fair CLR 70.9 53.4 81 70.7 54% 30.01 0.0
04 19:35 E 12 10.00 Fair CLR 72.7 53.1 50% 30 0.0
04 19:15 E 13 10.00 Fair CLR 73.9 53.1 48% 30 0.0
04 18:55 E 14 10.00 Fair CLR 74.8 53.4 47% 30.01 0.0
04 18:35 E 13 10.00 Fair CLR 75.4 53.4 47% 78 30 0.0
04 18:15 E 12 10.00 Partly Cloudy SCT050 76.5 53.8 45% 78 30 0.0
04 17:55 E 14 10.00 Partly Cloudy SCT050 77 54.1 45% 78 30 0.0
04 17:35 E 14 10.00 Partly Cloudy SCT050 77.7 54.1 44% 79 30.01 0.0
04 17:15 E 14 10.00 Partly Cloudy SCT050 78.4 54.5 44% 79 30 0.0
04 16:55 NE 12 G 16 10.00 Fair CLR 77.5 54.1 44% 79 30.01 0.0
04 16:35 E 12 10.00 Partly Cloudy SCT050 78.3 54 43% 79 30 0.0
Date Time (edt) Wind (mph) Vis. (mi.) Weather Sky Cond. Air Dwpt Max. Min. Relative Humidity Wind Chill (°F) Heat Index (°F) altimeter (in) sea level (mb) 1 hr 3 hr 6 hr
6 hour
Temperature (ºF) Pressure Precipitation (in)